Camden, Texas
Current Conditions -  °F | °C
As of 11:53 PM on Sunday 21 Dec 2014 (Local Time) from KLFK Reporting Station
Overcast Overcast  
Wind Chill: 53°   Ceiling: 700
Heat Index: 53°   Visibility: 8mi
Dew Point: 48°   Wind: 8mph
Humidity: 83%   Direction: 170°S
Pressure: 29.88"   Gusts: NA
Location:  30.92°N, 94.73°W
Report Text: KLFK 220553Z AUTO 17007KT 8SM BKN007 OVC032 12/09 A2988 RMK AO2 SLP115 T01170089 10122 20111 401280044 55010
Loading
Personal Weather Stations






























Interactive Weather Map New forecast layout! Learn more

10-Day Weather Forecast

Advertisements
Track Severe Weather on mobile